createdAt,value
2022-08-23T04:15:03.622Z,17.10
2022-08-23T04:18:09.374Z,15.00
2022-08-23T04:21:16.334Z,14.35
2022-08-23T04:24:20.133Z,13.73
2022-08-23T04:27:22.851Z,14.15
2022-08-23T04:30:25.976Z,14.68
2022-08-23T04:33:31.929Z,12.95
2022-08-23T04:36:37.771Z,13.35
2022-08-23T04:39:59.496Z,14.10
2022-08-23T04:43:03.839Z,13.27
2022-08-23T04:46:07.633Z,12.52
2022-08-23T04:49:11.849Z,12.75
2022-08-23T04:52:19.075Z,13.13
2022-08-23T04:55:22.641Z,12.30
2022-08-23T04:58:26.566Z,13.20
2022-08-23T05:01:48.484Z,13.23
2022-08-23T05:08:29.453Z,13.40
2022-08-23T05:15:17.399Z,12.88
2022-08-23T05:18:21.106Z,13.25
2022-08-23T05:21:26.675Z,12.45
2022-08-23T05:24:32.810Z,13.38
2022-08-23T05:27:36.607Z,11.63
2022-08-23T05:30:40.141Z,12.45
2022-08-23T05:33:51.439Z,11.48
2022-08-23T05:37:15.285Z,12.10
2022-08-23T05:51:54.611Z,10.85
2022-08-23T05:55:18.530Z,11.05
2022-08-23T05:58:45.193Z,11.55
2022-08-23T06:02:28.381Z,13.00
2022-08-23T06:06:00.349Z,12.75
2022-08-23T06:39:51.362Z,14.30
2022-08-23T06:42:55.122Z,14.50
2022-08-23T06:46:16.040Z,16.30
2022-08-23T06:49:19.630Z,15.32
2022-08-23T06:52:22.254Z,13.15
2022-08-23T06:55:25.443Z,14.70
2022-08-23T06:58:28.627Z,15.57
2022-08-23T07:01:47.995Z,13.65
2022-08-23T07:04:54.196Z,14.90
2022-08-23T07:07:58.387Z,14.30
2022-08-23T07:11:03.029Z,13.15
2022-08-23T07:14:10.373Z,13.60
2022-08-23T07:17:14.459Z,11.77
2022-08-23T07:20:20.637Z,11.88
2022-08-23T07:23:23.304Z,13.48
2022-08-23T07:26:27.749Z,13.40
2022-08-23T07:29:34.176Z,11.77
2022-08-23T07:32:37.396Z,11.07
2022-08-23T07:35:53.801Z,12.43
2022-08-23T07:38:57.883Z,12.70
2022-08-23T07:42:15.945Z,11.20
2022-08-23T07:45:25.984Z,11.35
2022-08-23T07:48:52.565Z,10.98
2022-08-23T07:51:58.961Z,11.27
2022-08-23T07:55:02.114Z,12.00
2022-08-23T07:58:05.224Z,10.98
2022-08-23T08:05:00.861Z,11.52
2022-08-23T08:11:49.390Z,11.30
2022-08-23T08:14:53.446Z,10.70
2022-08-23T08:17:57.418Z,10.20
2022-08-23T08:21:01.444Z,9.52
2022-08-23T08:24:05.610Z,10.52
2022-08-23T08:27:12.641Z,10.50
2022-08-23T08:30:15.241Z,10.30
2022-08-23T08:33:18.647Z,9.85
2022-08-23T08:36:37.097Z,10.05
2022-08-23T08:39:49.726Z,7.90
2022-08-23T08:43:17.518Z,8.00
2022-08-23T08:46:31.767Z,8.60
2022-08-23T08:49:47.954Z,8.50
2022-08-23T08:53:12.415Z,9.32
2022-08-23T08:56:25.197Z,8.32
2022-08-23T08:59:42.160Z,7.70
2022-08-23T09:02:45.559Z,8.68
2022-08-23T09:06:02.377Z,8.20
2022-08-23T09:09:20.168Z,7.97
2022-08-23T09:12:41.832Z,8.82
2022-08-23T09:16:08.907Z,8.63
2022-08-23T09:19:14.962Z,7.62
2022-08-23T09:22:40.561Z,9.40
2022-08-23T09:25:53.766Z,9.60
2022-08-23T09:29:13.472Z,9.77
2022-08-23T09:32:26.895Z,9.07
2022-08-23T09:35:39.692Z,9.00
2022-08-23T09:39:05.256Z,9.02
2022-08-23T09:42:27.177Z,8.43
2022-08-23T09:45:35.577Z,8.05
2022-08-23T09:48:46.886Z,8.05
2022-08-23T09:51:54.161Z,7.97
2022-08-23T09:55:02.696Z,8.02
2022-08-23T09:58:18.364Z,7.75
2022-08-23T10:01:22.248Z,8.25
2022-08-23T10:04:29.095Z,8.85
2022-08-23T10:07:42.547Z,8.30
2022-08-23T10:10:52.707Z,8.02
2022-08-23T10:13:56.239Z,8.18
2022-08-23T10:17:04.712Z,7.80
2022-08-23T10:20:35.653Z,8.10
2022-08-23T10:23:51.045Z,8.93
2022-08-23T10:27:27.233Z,9.02
2022-08-23T10:31:07.797Z,8.70
2022-08-23T10:34:11.152Z,7.68
2022-08-23T10:37:47.904Z,7.50
2022-08-23T10:41:20.878Z,7.28
2022-08-23T10:44:43.676Z,6.80
2022-08-23T10:48:12.553Z,6.87
2022-08-23T10:51:32.076Z,6.60
2022-08-23T10:58:15.559Z,6.93
2022-08-23T11:01:44.965Z,6.30
2022-08-23T11:04:51.470Z,5.80
2022-08-23T11:08:09.173Z,5.87
2022-08-23T11:11:40.967Z,6.45
2022-08-23T11:15:03.761Z,5.93
2022-08-23T11:18:13.087Z,6.07
2022-08-23T11:21:19.141Z,6.30
2022-08-23T11:24:32.391Z,6.35
2022-08-23T11:27:42.164Z,5.43
2022-08-23T11:30:50.385Z,4.80
2022-08-23T11:34:04.918Z,4.80
2022-08-23T11:37:23.431Z,5.65
2022-08-23T11:40:39.347Z,5.40
2022-08-23T11:43:45.450Z,5.30
2022-08-23T11:46:55.386Z,4.97
2022-08-23T11:50:25.040Z,4.70
2022-08-23T11:53:52.953Z,4.80
2022-08-23T11:57:00.030Z,5.00
2022-08-23T12:00:13.469Z,5.25
2022-08-23T12:03:34.551Z,4.72
2022-08-23T12:06:50.916Z,4.65
2022-08-23T12:09:56.264Z,4.62
2022-08-23T12:13:24.974Z,4.72
2022-08-23T12:16:33.336Z,5.20
2022-08-23T12:19:48.893Z,4.65
2022-08-23T12:23:16.205Z,5.28
2022-08-23T12:26:49.813Z,5.43
2022-08-23T12:29:57.696Z,5.22
2022-08-23T12:33:16.731Z,5.15
2022-08-23T12:36:58.810Z,4.90
2022-08-23T12:40:08.202Z,5.10
2022-08-23T12:43:22.519Z,5.60
2022-08-23T12:46:35.868Z,5.25
2022-08-23T12:49:39.607Z,5.20
2022-08-23T12:52:42.243Z,5.68
2022-08-23T12:55:50.080Z,5.37
2022-08-23T12:58:58.115Z,5.97
2022-08-23T13:02:05.039Z,5.50
2022-08-23T13:05:22.126Z,5.80
2022-08-23T13:08:41.594Z,5.87
2022-08-23T13:11:46.047Z,5.53
2022-08-23T13:14:54.587Z,5.62
2022-08-23T13:18:01.897Z,5.82
2022-08-23T13:21:23.459Z,5.93
2022-08-23T13:24:39.203Z,5.32
2022-08-23T13:27:44.790Z,5.78
2022-08-23T13:31:02.497Z,6.20
2022-08-23T13:34:09.492Z,6.53
2022-08-23T13:37:24.114Z,6.78
2022-08-23T13:40:33.400Z,5.80
2022-08-23T13:43:44.756Z,6.22
2022-08-23T13:46:48.343Z,6.35
2022-08-23T13:49:52.237Z,6.53
2022-08-23T13:56:18.289Z,6.18
2022-08-23T13:59:31.996Z,6.30
2022-08-23T14:02:34.615Z,6.15
